Peawanuck Airport
CYPO : now visible

Airfield :











YOU CAN JOIN US ON...

 
LOGIN :

Register | Disclaimer

   EN    FR    IT 

 









Legend :    VFR   Marginal VFR   IFR   Intensive IFR   Very Intensive IFR
Visi :
Ceiling :
>= 8 km
>= 3000ft
5 to 8 km
1000 to 3000 ft
1500m to 5 km
500 to 1000 ft
800 to 1500m
200 to 500 ft
< 800m
< 200 ft
Symbols :   Thunderstorms  Fog  Heavy snow  Heavy precipitations  Wind > 20 kt






- Airport Elevation : 173 ft
- IATA code : YPO


CYPO - Peawanuck

CURRENT METAR :
  • 110700Z AUTO 24012G20KT 9SM FEW095 BKN140 BKN180 18/12 A2928 RMK SLP916 DENSITY ALT 1300FT

EXPIRED METARs :
  • 110600Z AUTO 21008KT 9SM FEW075 SCT094 18/13 A2929 RMK SLP919 DENSITY ALT 1200FT
  • 110500Z AUTO 20008KT 9SM BKN055 BKN120 19/13 A2931 RMK SLP925 DENSITY ALT 1300FT

TAF N/A
CZWG FIR / North America



MET'MAP, your aeronautical weather chart ! - Copyright ORBIFLY December 2007 - Disclaimer

ORBIFLY MET'MAP TEAM :

Programming & Development : Alexandra Zaïnal
Concept & original design : Baudouin d'Aumeries
Assistance for programming : Marc-Olivier Méhu
Technical & hardware support : Manuel Goepfert

Contact : metmap@orbifly.com




SOURCES & CREDITS :

   NOAA       Earth
Advisory